createdAt,value
2022-08-28T04:15:17.628Z,1003.34
2022-08-28T04:16:19.802Z,1003.34
2022-08-28T04:17:22.020Z,1003.35
2022-08-28T04:18:23.273Z,1003.33
2022-08-28T04:19:24.905Z,1003.32
2022-08-28T04:20:27.174Z,1003.32
2022-08-28T04:21:28.096Z,1003.34
2022-08-28T04:22:30.215Z,1003.33
2022-08-28T04:23:32.336Z,1003.37
2022-08-28T04:24:34.474Z,1003.34
2022-08-28T04:25:36.803Z,1003.33
2022-08-28T04:26:37.754Z,1003.33
2022-08-28T04:27:39.881Z,1003.32
2022-08-28T04:28:42.011Z,1003.31
2022-08-28T04:29:43.212Z,1003.31
2022-08-28T04:30:45.375Z,1003.29
2022-08-28T04:31:46.607Z,1003.28
2022-08-28T04:32:47.558Z,1003.27
2022-08-28T04:33:48.522Z,1003.29
2022-08-28T04:34:50.857Z,1003.33
2022-08-28T04:35:51.814Z,1003.38
2022-08-28T04:36:54.021Z,1003.36
2022-08-28T04:37:58.828Z,1003.37
2022-08-28T04:38:57.756Z,1003.39
2022-08-28T04:39:59.915Z,1003.38
2022-08-28T04:41:00.915Z,1003.41
2022-08-28T04:42:03.143Z,1003.43
2022-08-28T04:43:05.271Z,1003.41
2022-08-28T04:44:07.420Z,1003.42
2022-08-28T04:45:09.541Z,1003.43
2022-08-28T04:46:10.592Z,1003.49
2022-08-28T04:47:11.574Z,1003.48
2022-08-28T04:48:14.055Z,1003.50
2022-08-28T04:49:15.130Z,1003.53
2022-08-28T04:50:17.215Z,1003.52
2022-08-28T04:51:19.377Z,1003.50
2022-08-28T04:52:21.501Z,1003.49
2022-08-28T04:53:23.663Z,1003.51
2022-08-28T04:54:24.598Z,1003.48
2022-08-28T04:55:45.082Z,1003.53
2022-08-28T04:56:27.889Z,1003.53
2022-08-28T04:57:31.245Z,1003.50
2022-08-28T04:58:30.326Z,1003.51
2022-08-28T04:59:32.450Z,1003.48
2022-08-28T05:00:33.500Z,1003.47
2022-08-28T05:01:35.679Z,1003.49
2022-08-28T05:02:36.740Z,1003.48
2022-08-28T05:03:38.901Z,1003.48
2022-08-28T05:04:41.013Z,1003.47
2022-08-28T05:05:43.157Z,1003.48
2022-08-28T05:06:45.280Z,1003.48
2022-08-28T05:07:47.400Z,1003.48
2022-08-28T05:08:49.585Z,1003.47
2022-08-28T05:09:51.369Z,1003.49
2022-08-28T05:10:53.548Z,1003.44
2022-08-28T05:11:54.509Z,1003.49
2022-08-28T05:12:56.713Z,1003.48
2022-08-28T05:13:57.662Z,1003.48
2022-08-28T05:14:58.628Z,1003.49
2022-08-28T05:15:59.676Z,1003.49
2022-08-28T05:17:01.821Z,1003.52
2022-08-28T05:18:02.829Z,1003.53
2022-08-28T05:19:03.794Z,1003.58
2022-08-28T05:20:05.924Z,1003.55
2022-08-28T05:21:11.581Z,1003.54
2022-08-28T05:22:09.355Z,1003.56
2022-08-28T05:23:11.545Z,1003.57
2022-08-28T05:24:13.888Z,1003.55
2022-08-28T05:25:14.892Z,1003.55
2022-08-28T05:26:16.978Z,1003.51
2022-08-28T05:27:19.104Z,1003.50
2022-08-28T05:28:21.233Z,1003.54
2022-08-28T05:29:25.187Z,1003.53
2022-08-28T05:30:25.093Z,1003.52
2022-08-28T05:31:27.387Z,1003.53
2022-08-28T05:32:28.364Z,1003.51
2022-08-28T05:33:29.598Z,1003.51
2022-08-28T05:34:31.841Z,1003.50
2022-08-28T05:35:34.183Z,1003.53
2022-08-28T05:36:35.163Z,1003.50
2022-08-28T05:37:37.287Z,1003.48
2022-08-28T05:38:39.444Z,1003.55
2022-08-28T05:39:41.574Z,1003.56
2022-08-28T05:40:43.656Z,1003.54
2022-08-28T05:41:45.788Z,1003.56
2022-08-28T05:42:47.924Z,1003.61
2022-08-28T05:43:50.084Z,1003.61
2022-08-28T05:44:54.726Z,1003.64
2022-08-28T05:45:53.721Z,1003.60
2022-08-28T05:46:54.802Z,1003.60
2022-08-28T05:47:55.856Z,1003.63
2022-08-28T05:48:58.106Z,1003.66
2022-08-28T05:50:00.233Z,1003.65
2022-08-28T05:51:02.364Z,1003.64
2022-08-28T05:52:04.025Z,1003.70
2022-08-28T05:53:06.207Z,1003.71
2022-08-28T05:54:08.409Z,1003.67
2022-08-28T05:55:09.371Z,1003.68
2022-08-28T05:56:11.513Z,1003.67
2022-08-28T05:57:12.806Z,1003.69
2022-08-28T05:58:14.952Z,1003.68
2022-08-28T05:59:17.068Z,1003.70
2022-08-28T06:00:19.188Z,1003.73
2022-08-28T06:01:21.310Z,1003.78
2022-08-28T06:02:22.494Z,1003.76
2022-08-28T06:03:24.631Z,1003.79
2022-08-28T06:04:26.800Z,1003.78
2022-08-28T06:05:28.966Z,1003.80
2022-08-28T06:06:31.094Z,1003.81
2022-08-28T06:07:33.351Z,1003.83
2022-08-28T06:08:35.532Z,1003.87
2022-08-28T06:09:36.992Z,1003.84
2022-08-28T06:10:38.175Z,1003.89
2022-08-28T06:11:42.135Z,1003.91
2022-08-28T06:12:41.019Z,1003.88
2022-08-28T06:13:42.122Z,1003.91
2022-08-28T06:14:43.372Z,1003.90
2022-08-28T06:15:45.012Z,1003.93
2022-08-28T06:16:47.212Z,1003.91
2022-08-28T06:17:49.338Z,1003.93
2022-08-28T06:18:51.470Z,1003.92
2022-08-28T06:19:53.587Z,1003.95
2022-08-28T06:20:55.710Z,1004.01
2022-08-28T06:21:57.831Z,1003.99
2022-08-28T06:22:59.963Z,1004.02
2022-08-28T06:24:01.136Z,1004.05
2022-08-28T06:25:07.465Z,1004.02
2022-08-28T06:26:04.477Z,1003.99
2022-08-28T06:27:06.596Z,1004.01
2022-08-28T06:28:08.795Z,1004.01
2022-08-28T06:29:10.239Z,1004.06
2022-08-28T06:30:12.377Z,1004.03
2022-08-28T06:31:25.069Z,1004.00
2022-08-28T06:32:16.842Z,1004.02
2022-08-28T06:33:17.892Z,1004.04
2022-08-28T06:34:19.063Z,1004.02
2022-08-28T06:35:21.181Z,1004.04
2022-08-28T06:36:23.356Z,1004.08
2022-08-28T06:37:25.501Z,1004.09
2022-08-28T06:38:27.621Z,1004.09
2022-08-28T06:39:29.746Z,1004.09
2022-08-28T06:40:31.878Z,1004.10
2022-08-28T06:41:33.109Z,1004.11
2022-08-28T06:42:35.269Z,1004.11
2022-08-28T06:43:37.443Z,1004.11
2022-08-28T06:44:38.708Z,1004.14
2022-08-28T06:45:40.893Z,1004.11
2022-08-28T06:46:41.895Z,1004.09
2022-08-28T06:47:44.015Z,1004.15
2022-08-28T06:48:46.144Z,1004.13
2022-08-28T06:49:48.283Z,1004.15
2022-08-28T06:50:49.247Z,1004.06
2022-08-28T06:51:51.375Z,1004.06
2022-08-28T06:52:53.493Z,1004.08
2022-08-28T06:53:55.615Z,1004.06
2022-08-28T06:54:57.731Z,1004.05
2022-08-28T06:55:59.852Z,1004.04
2022-08-28T06:57:01.970Z,1004.09
2022-08-28T06:58:04.289Z,1004.09
2022-08-28T06:59:05.266Z,1004.04
2022-08-28T07:00:07.421Z,1004.07
2022-08-28T07:01:08.682Z,1004.09
2022-08-28T07:02:09.922Z,1004.07
2022-08-28T07:03:12.100Z,1004.14
2022-08-28T07:04:14.219Z,1004.11
2022-08-28T07:05:16.338Z,1004.16
2022-08-28T07:06:18.458Z,1004.14
2022-08-28T07:07:32.379Z,1004.18
2022-08-28T07:08:22.818Z,1004.19
2022-08-28T07:09:29.875Z,1004.19
2022-08-28T07:10:25.063Z,1004.17
2022-08-28T07:11:27.179Z,1004.19
2022-08-28T07:12:29.355Z,1004.21
2022-08-28T07:13:33.777Z,1004.22
2022-08-28T07:14:31.648Z,1004.21
2022-08-28T07:15:32.848Z,1004.22
2022-08-28T07:16:34.975Z,1004.20
2022-08-28T07:17:37.349Z,1004.25
2022-08-28T07:18:39.509Z,1004.22
2022-08-28T07:19:41.623Z,1004.29
2022-08-28T07:20:42.818Z,1004.28
2022-08-28T07:21:44.952Z,1004.30
2022-08-28T07:22:47.061Z,1004.28
2022-08-28T07:23:49.046Z,1004.31
2022-08-28T07:24:51.181Z,1004.27
2022-08-28T07:25:52.374Z,1004.28
2022-08-28T07:26:54.670Z,1004.29
2022-08-28T07:27:55.649Z,1004.24
2022-08-28T07:29:00.691Z,1004.30
2022-08-28T07:29:59.989Z,1004.34
2022-08-28T07:31:01.025Z,1004.37
2022-08-28T07:32:03.184Z,1004.32
2022-08-28T07:33:05.364Z,1004.23
2022-08-28T07:34:07.589Z,1004.21
2022-08-28T07:35:08.788Z,1004.28
2022-08-28T07:36:15.790Z,1004.25
2022-08-28T07:37:15.340Z,1004.27
2022-08-28T07:38:14.228Z,1004.23
2022-08-28T07:39:15.254Z,1004.26
2022-08-28T07:40:17.403Z,1004.18
2022-08-28T07:41:19.533Z,1004.26
2022-08-28T07:42:28.001Z,1004.24
2022-08-28T07:43:23.357Z,1004.24
2022-08-28T07:44:25.582Z,1004.23
2022-08-28T07:45:27.856Z,1004.22
2022-08-28T07:46:30.235Z,1004.20
2022-08-28T07:47:31.271Z,1004.19
2022-08-28T07:48:33.400Z,1004.18
2022-08-28T07:49:35.569Z,1004.21
2022-08-28T07:50:37.702Z,1004.21
2022-08-28T07:51:39.825Z,1004.25
2022-08-28T07:52:40.815Z,1004.25
2022-08-28T07:53:41.800Z,1004.30
2022-08-28T07:54:43.993Z,1004.29
2022-08-28T07:55:44.970Z,1004.28
2022-08-28T07:56:47.180Z,1004.32
2022-08-28T07:57:49.305Z,1004.35
2022-08-28T07:58:51.353Z,1004.39
2022-08-28T07:59:53.544Z,1004.38
2022-08-28T08:00:55.723Z,1004.37
2022-08-28T08:01:57.885Z,1004.37
2022-08-28T08:02:58.876Z,1004.37
2022-08-28T08:04:01.502Z,1004.41
2022-08-28T08:05:02.954Z,1004.42
2022-08-28T08:06:05.081Z,1004.38
2022-08-28T08:07:07.210Z,1004.41
2022-08-28T08:08:09.401Z,1004.43
2022-08-28T08:09:11.555Z,1004.38
2022-08-28T08:10:13.701Z,1004.34
2022-08-28T08:11:16.554Z,1004.27
2022-08-28T08:12:17.662Z,1004.30
2022-08-28T08:13:19.866Z,1004.30
2022-08-28T08:14:21.254Z,1004.36
2022-08-28T08:15:23.443Z,1004.33
2022-08-28T08:16:24.459Z,1004.36
2022-08-28T08:17:26.638Z,1004.34
2022-08-28T08:18:28.784Z,1004.46
2022-08-28T08:19:31.004Z,1004.47
2022-08-28T08:20:33.121Z,1004.46
2022-08-28T08:21:35.261Z,1004.41
2022-08-28T08:22:37.473Z,1004.37
2022-08-28T08:23:39.687Z,1004.30
2022-08-28T08:24:41.807Z,1004.32
2022-08-28T08:25:44.030Z,1004.47
2022-08-28T08:26:45.204Z,1004.43
2022-08-28T08:27:47.442Z,1004.31
2022-08-28T08:28:47.444Z,1004.33
2022-08-28T08:29:49.570Z,1004.30
2022-08-28T08:30:51.761Z,1004.37
2022-08-28T08:31:53.921Z,1004.35
2022-08-28T08:32:56.056Z,1004.36
2022-08-28T08:33:57.622Z,1004.39
2022-08-28T08:34:59.748Z,1004.53
2022-08-28T08:36:01.878Z,1004.43
2022-08-28T08:37:04.011Z,1004.39
2022-08-28T08:38:06.184Z,1004.43
2022-08-28T08:39:09.602Z,1004.35
2022-08-28T08:40:10.839Z,1004.39
2022-08-28T08:41:10.763Z,1004.44
2022-08-28T08:42:12.901Z,1004.40
2022-08-28T08:43:13.873Z,1004.51
2022-08-28T08:44:14.913Z,1004.41
2022-08-28T08:45:16.111Z,1004.37
2022-08-28T08:46:18.257Z,1004.53
2022-08-28T08:47:19.257Z,1004.55
2022-08-28T08:48:21.383Z,1004.51
2022-08-28T08:49:23.466Z,1004.51
2022-08-28T08:50:24.572Z,1004.42
2022-08-28T08:51:26.710Z,1004.51
2022-08-28T08:52:28.843Z,1004.38
2022-08-28T08:53:30.959Z,1004.61
2022-08-28T08:54:33.127Z,1004.40
2022-08-28T08:55:34.091Z,1004.36
2022-08-28T08:56:35.309Z,1004.44
2022-08-28T08:57:36.356Z,1004.43
2022-08-28T08:58:38.474Z,1004.48
2022-08-28T08:59:40.594Z,1004.60
2022-08-28T09:00:42.886Z,1004.57
2022-08-28T09:01:43.884Z,1004.40
2022-08-28T09:02:46.040Z,1004.42
2022-08-28T09:03:48.243Z,1004.43
2022-08-28T09:04:50.057Z,1004.41
2022-08-28T09:05:52.188Z,1004.42
2022-08-28T09:06:54.343Z,1004.46
2022-08-28T09:07:56.541Z,1004.44
2022-08-28T09:08:58.720Z,1004.45
2022-08-28T09:10:00.853Z,1004.44
2022-08-28T09:11:02.998Z,1004.60
2022-08-28T09:12:04.179Z,1004.52
2022-08-28T09:13:06.325Z,1004.50
2022-08-28T09:14:08.652Z,1004.65
2022-08-28T09:15:15.659Z,1004.64
2022-08-28T09:16:10.893Z,1004.65
2022-08-28T09:17:13.028Z,1004.65
2022-08-28T09:18:21.248Z,1004.60
2022-08-28T09:19:17.639Z,1004.58
2022-08-28T09:20:19.823Z,1004.62
2022-08-28T09:21:21.016Z,1004.68
2022-08-28T09:22:22.071Z,1004.60
2022-08-28T09:23:23.045Z,1004.59
2022-08-28T09:24:25.141Z,1004.56
2022-08-28T09:25:26.950Z,1004.59
2022-08-28T09:26:29.077Z,1004.64
2022-08-28T09:27:31.249Z,1004.57
2022-08-28T09:28:32.205Z,1004.56
2022-08-28T09:29:34.523Z,1004.61
2022-08-28T09:30:35.487Z,1004.59
2022-08-28T09:31:37.610Z,1004.52
2022-08-28T09:32:39.725Z,1004.69
2022-08-28T09:33:42.025Z,1004.73
2022-08-28T09:34:43.046Z,1004.66
2022-08-28T09:35:44.261Z,1004.71
2022-08-28T09:36:46.427Z,1004.65
2022-08-28T09:37:48.568Z,1004.65
2022-08-28T09:38:50.693Z,1004.61
2022-08-28T09:39:52.929Z,1004.68
2022-08-28T09:40:54.183Z,1004.65
2022-08-28T09:41:56.309Z,1004.49
2022-08-28T09:42:58.631Z,1004.64
2022-08-28T09:44:00.775Z,1004.63
2022-08-28T09:45:03.124Z,1004.69
2022-08-28T09:46:05.480Z,1004.64
2022-08-28T09:47:05.335Z,1004.66
2022-08-28T09:48:06.286Z,1004.67
2022-08-28T09:49:07.253Z,1004.70
2022-08-28T09:50:08.251Z,1004.65
2022-08-28T09:51:09.218Z,1004.60
2022-08-28T09:52:11.375Z,1004.59
2022-08-28T09:53:12.418Z,1004.57
2022-08-28T09:54:14.540Z,1004.59
2022-08-28T09:55:16.285Z,1004.55
2022-08-28T09:56:17.710Z,1004.60
2022-08-28T09:57:19.842Z,1004.58
2022-08-28T09:58:21.987Z,1004.59
2022-08-28T09:59:24.141Z,1004.59
2022-08-28T10:00:26.307Z,1004.57
2022-08-28T10:01:28.578Z,1004.60
2022-08-28T10:02:29.640Z,1004.61
2022-08-28T10:03:31.768Z,1004.62
2022-08-28T10:04:34.024Z,1004.64
2022-08-28T10:05:35.056Z,1004.60
2022-08-28T10:06:37.175Z,1004.61
2022-08-28T10:07:39.305Z,1004.62
2022-08-28T10:08:41.392Z,1004.62
2022-08-28T10:09:46.869Z,1004.57
2022-08-28T10:10:45.468Z,1004.66
2022-08-28T10:11:47.673Z,1004.62
2022-08-28T10:12:49.849Z,1004.67
2022-08-28T10:13:51.941Z,1004.63
2022-08-28T10:14:54.098Z,1004.61
2022-08-28T10:15:56.358Z,1004.63
2022-08-28T10:16:57.376Z,1004.62
2022-08-28T10:17:59.523Z,1004.65
2022-08-28T10:19:01.640Z,1004.70
2022-08-28T10:20:03.846Z,1004.71
2022-08-28T10:21:05.976Z,1004.68
2022-08-28T10:22:08.172Z,1004.72
2022-08-28T10:23:13.386Z,1004.71
2022-08-28T10:24:11.796Z,1004.68
2022-08-28T10:25:12.943Z,1004.66
2022-08-28T10:26:14.073Z,1004.65
2022-08-28T10:27:15.141Z,1004.65
2022-08-28T10:28:17.273Z,1004.72
2022-08-28T10:29:18.401Z,1004.72
2022-08-28T10:30:20.626Z,1004.69
2022-08-28T10:31:23.000Z,1004.72
2022-08-28T10:32:24.024Z,1004.69
2022-08-28T10:33:26.205Z,1004.71
2022-08-28T10:34:27.166Z,1004.69
2022-08-28T10:35:29.343Z,1004.73
2022-08-28T10:36:33.454Z,1004.69
2022-08-28T10:37:33.027Z,1004.73
2022-08-28T10:38:35.113Z,1004.70
2022-08-28T10:39:37.229Z,1004.70
2022-08-28T10:40:39.463Z,1004.73
2022-08-28T10:41:41.654Z,1004.71
2022-08-28T10:42:43.794Z,1004.69
2022-08-28T10:43:45.962Z,1004.70
2022-08-28T10:44:47.922Z,1004.68
2022-08-28T10:45:50.058Z,1004.68
2022-08-28T10:46:52.209Z,1004.72
2022-08-28T10:47:54.376Z,1004.74
2022-08-28T10:48:56.512Z,1004.76
2022-08-28T10:49:58.762Z,1004.75
2022-08-28T10:50:59.712Z,1004.80
2022-08-28T10:52:01.852Z,1004.73
2022-08-28T10:53:03.195Z,1004.73
2022-08-28T10:54:05.315Z,1004.72
2022-08-28T10:55:07.504Z,1004.78
2022-08-28T10:56:09.641Z,1004.77
2022-08-28T10:57:11.806Z,1004.68
2022-08-28T10:58:24.977Z,1004.66
2022-08-28T10:59:15.014Z,1004.65
2022-08-28T11:00:15.971Z,1004.61
2022-08-28T11:01:17.050Z,1004.67
2022-08-28T11:02:18.301Z,1004.63
2022-08-28T11:03:33.894Z,1004.64
2022-08-28T11:04:25.369Z,1004.60
2022-08-28T11:05:22.099Z,1004.65
2022-08-28T11:06:23.061Z,1004.62
2022-08-28T11:07:24.304Z,1004.56
2022-08-28T11:08:26.425Z,1004.57
2022-08-28T11:09:28.551Z,1004.56
2022-08-28T11:10:30.688Z,1004.57
2022-08-28T11:11:32.787Z,1004.55
2022-08-28T11:12:34.047Z,1004.58
2022-08-28T11:13:36.177Z,1004.60
2022-08-28T11:14:39.395Z,1004.58
2022-08-28T11:15:39.745Z,1004.61
2022-08-28T11:16:41.947Z,1004.60
2022-08-28T11:17:43.979Z,1004.64
2022-08-28T11:18:46.099Z,1004.61
2022-08-28T11:19:52.285Z,1004.66
2022-08-28T11:20:50.046Z,1004.63
2022-08-28T11:21:51.084Z,1004.64
2022-08-28T11:22:53.186Z,1004.62
2022-08-28T11:23:54.334Z,1004.66
2022-08-28T11:25:01.701Z,1004.66
2022-08-28T11:25:57.716Z,1004.63
2022-08-28T11:27:00.007Z,1004.63
2022-08-28T11:28:02.132Z,1004.66
2022-08-28T11:29:03.104Z,1004.67
2022-08-28T11:30:04.260Z,1004.66
2022-08-28T11:31:05.341Z,1004.71
2022-08-28T11:32:06.365Z,1004.63
2022-08-28T11:33:08.484Z,1004.65
2022-08-28T11:34:10.645Z,1004.63
2022-08-28T11:35:11.829Z,1004.68
2022-08-28T11:36:13.951Z,1004.66
2022-08-28T11:37:15.518Z,1004.67
2022-08-28T11:38:20.094Z,1004.65
2022-08-28T11:39:19.965Z,1004.74
2022-08-28T11:40:22.156Z,1004.71
2022-08-28T11:41:23.109Z,1004.69
2022-08-28T11:42:25.229Z,1004.69
2022-08-28T11:43:26.581Z,1004.71
2022-08-28T11:44:27.546Z,1004.61
2022-08-28T11:45:29.668Z,1004.69
2022-08-28T11:46:31.872Z,1004.66
2022-08-28T11:47:34.100Z,1004.68
2022-08-28T11:48:36.236Z,1004.70
2022-08-28T11:49:38.363Z,1004.75
2022-08-28T11:50:40.509Z,1004.73
2022-08-28T11:51:42.718Z,1004.72
2022-08-28T11:52:43.668Z,1004.72
2022-08-28T11:53:45.951Z,1004.68
2022-08-28T11:54:48.219Z,1004.65
2022-08-28T11:55:49.248Z,1004.66
2022-08-28T11:56:50.309Z,1004.69
2022-08-28T11:57:52.429Z,1004.62
2022-08-28T11:58:54.591Z,1004.62
2022-08-28T11:59:56.730Z,1004.59
2022-08-28T12:00:57.780Z,1004.59
2022-08-28T12:02:00.148Z,1004.58
2022-08-28T12:03:01.182Z,1004.60
2022-08-28T12:04:06.166Z,1004.58
2022-08-28T12:05:04.386Z,1004.56
2022-08-28T12:06:05.350Z,1004.58
2022-08-28T12:07:07.506Z,1004.54
2022-08-28T12:08:09.628Z,1004.60
2022-08-28T12:09:11.803Z,1004.61
2022-08-28T12:10:14.044Z,1004.62
2022-08-28T12:11:15.011Z,1004.57
2022-08-28T12:12:16.224Z,1004.57
2022-08-28T12:13:18.358Z,1004.55
2022-08-28T12:14:20.862Z,1004.58
2022-08-28T12:15:21.889Z,1004.53
2022-08-28T12:16:24.092Z,1004.47
2022-08-28T12:17:29.134Z,1004.51
2022-08-28T12:18:27.365Z,1004.57
2022-08-28T12:19:28.376Z,1004.52
2022-08-28T12:20:30.640Z,1004.49
2022-08-28T12:21:32.761Z,1004.50
2022-08-28T12:22:34.982Z,1004.52
2022-08-28T12:23:36.005Z,1004.53
2022-08-28T12:24:38.245Z,1004.51
2022-08-28T12:25:39.194Z,1004.48
2022-08-28T12:26:41.362Z,1004.45
2022-08-28T12:27:43.482Z,1004.43
2022-08-28T12:28:45.607Z,1004.38
2022-08-28T12:29:47.732Z,1004.44
2022-08-28T12:30:49.939Z,1004.42
2022-08-28T12:31:51.326Z,1004.40
2022-08-28T12:32:52.298Z,1004.39
2022-08-28T12:33:54.457Z,1004.35
2022-08-28T12:34:56.582Z,1004.42
2022-08-28T12:35:58.792Z,1004.40
2022-08-28T12:37:00.891Z,1004.42
2022-08-28T12:38:02.084Z,1004.46
2022-08-28T12:39:03.228Z,1004.45
2022-08-28T12:40:05.402Z,1004.43
2022-08-28T12:41:06.401Z,1004.40
2022-08-28T12:42:08.549Z,1004.47
2022-08-28T12:43:10.706Z,1004.44
2022-08-28T12:44:12.857Z,1004.38
2022-08-28T12:45:13.834Z,1004.29
2022-08-28T12:46:19.335Z,1004.33
2022-08-28T12:47:16.165Z,1004.30
2022-08-28T12:48:17.211Z,1004.32
2022-08-28T12:49:19.422Z,1004.32
2022-08-28T12:50:21.836Z,1004.35
2022-08-28T12:51:23.045Z,1004.33
2022-08-28T12:52:24.225Z,1004.29
2022-08-28T12:53:26.346Z,1004.27
2022-08-28T12:54:27.406Z,1004.34
2022-08-28T12:55:29.529Z,1004.34
2022-08-28T12:56:31.724Z,1004.36
2022-08-28T12:57:33.850Z,1004.32
2022-08-28T12:58:36.031Z,1004.32
2022-08-28T12:59:37.059Z,1004.30
2022-08-28T13:00:39.192Z,1004.34
2022-08-28T13:01:41.463Z,1004.28
2022-08-28T13:02:43.925Z,1004.31
2022-08-28T13:03:43.952Z,1004.27
2022-08-28T13:04:44.883Z,1004.32
2022-08-28T13:05:47.213Z,1004.30
2022-08-28T13:06:48.169Z,1004.28
2022-08-28T13:07:49.362Z,1004.24
2022-08-28T13:08:51.535Z,1004.26
2022-08-28T13:09:52.535Z,1004.24
2022-08-28T13:10:54.713Z,1004.27
2022-08-28T13:11:56.166Z,1004.26
2022-08-28T13:13:00.809Z,1004.29
2022-08-28T13:13:59.421Z,1004.33
2022-08-28T13:15:06.406Z,1004.31
2022-08-28T13:16:02.693Z,1004.29
2022-08-28T13:17:04.813Z,1004.24
2022-08-28T13:18:06.942Z,1004.22
2022-08-28T13:19:08.331Z,1004.20
2022-08-28T13:20:09.286Z,1004.20
2022-08-28T13:21:17.692Z,1004.25
2022-08-28T13:22:14.299Z,1004.23
2022-08-28T13:23:14.849Z,1004.15
2022-08-28T13:24:16.973Z,1004.18
2022-08-28T13:25:19.092Z,1004.18
2022-08-28T13:26:21.218Z,1004.15
2022-08-28T13:27:22.833Z,1004.19
2022-08-28T13:28:23.776Z,1004.15
2022-08-28T13:29:24.956Z,1004.14
2022-08-28T13:30:27.411Z,1004.20
2022-08-28T13:31:28.411Z,1004.14
2022-08-28T13:32:29.620Z,1004.14
2022-08-28T13:33:31.781Z,1004.10
2022-08-28T13:34:34.110Z,1004.15
2022-08-28T13:35:35.339Z,1004.15
2022-08-28T13:36:36.580Z,1004.14
2022-08-28T13:37:44.755Z,1004.20
2022-08-28T13:38:39.870Z,1004.18
2022-08-28T13:39:42.194Z,1004.14
2022-08-28T13:40:59.654Z,1004.14
2022-08-28T13:41:45.414Z,1004.10
2022-08-28T13:42:46.408Z,1004.15
2022-08-28T13:43:48.530Z,1004.17
2022-08-28T13:44:50.795Z,1004.14
2022-08-28T13:45:51.866Z,1004.07
2022-08-28T13:46:53.276Z,1004.10
2022-08-28T13:47:55.024Z,1004.08
2022-08-28T13:48:57.149Z,1004.05
2022-08-28T13:49:59.295Z,1004.08
2022-08-28T13:51:01.457Z,1004.08
2022-08-28T13:52:03.406Z,1004.06
2022-08-28T13:53:05.605Z,1004.07
2022-08-28T13:54:06.898Z,1004.06
2022-08-28T13:55:08.390Z,1004.05
2022-08-28T13:56:10.496Z,1004.02
2022-08-28T13:57:12.649Z,1004.05
2022-08-28T13:58:14.772Z,1004.05
2022-08-28T13:59:16.933Z,1004.07
2022-08-28T14:00:17.928Z,1004.05
2022-08-28T14:01:20.296Z,1004.11
2022-08-28T14:02:22.389Z,1004.06
2022-08-28T14:03:23.353Z,1004.07
2022-08-28T14:04:25.486Z,1004.03
2022-08-28T14:05:26.503Z,1004.06
2022-08-28T14:06:33.960Z,1004.07
2022-08-28T14:07:29.131Z,1004.05
2022-08-28T14:08:30.150Z,1004.09
2022-08-28T14:09:38.326Z,1004.08
2022-08-28T14:10:33.765Z,1004.13
2022-08-28T14:11:35.886Z,1004.10
2022-08-28T14:12:38.002Z,1004.07
2022-08-28T14:13:39.038Z,1004.08
2022-08-28T14:14:40.056Z,1004.09
2022-08-28T14:15:41.002Z,1004.07
2022-08-28T14:16:42.278Z,1004.11
2022-08-28T14:17:44.504Z,1004.10
2022-08-28T14:18:46.897Z,1004.15
2022-08-28T14:19:48.103Z,1004.14
2022-08-28T14:20:49.125Z,1004.12
2022-08-28T14:21:50.499Z,1004.14
2022-08-28T14:22:51.706Z,1004.13
2022-08-28T14:23:52.652Z,1004.09
2022-08-28T14:24:54.770Z,1004.14
2022-08-28T14:25:57.164Z,1004.11
2022-08-28T14:26:58.188Z,1004.11
2022-08-28T14:27:59.523Z,1004.08
2022-08-28T14:29:00.523Z,1004.12
2022-08-28T14:30:01.711Z,1004.13
2022-08-28T14:31:02.911Z,1004.13
2022-08-28T14:32:05.183Z,1004.13
2022-08-28T14:33:07.369Z,1004.09
2022-08-28T14:34:08.592Z,1004.05
2022-08-28T14:35:10.763Z,1004.04
2022-08-28T14:36:12.897Z,1004.06
2022-08-28T14:37:15.982Z,1004.07
2022-08-28T14:38:15.886Z,1004.03
2022-08-28T14:39:16.967Z,1004.05
2022-08-28T14:40:18.235Z,1004.02
2022-08-28T14:41:20.525Z,1004.03
2022-08-28T14:42:22.708Z,1004.07
2022-08-28T14:43:24.838Z,1004.13
2022-08-28T14:44:27.029Z,1004.17
2022-08-28T14:45:28.522Z,1004.18
2022-08-28T14:46:29.869Z,1004.20
2022-08-28T14:47:31.075Z,1004.16
2022-08-28T14:48:33.197Z,1004.17
2022-08-28T14:49:35.403Z,1004.14
2022-08-28T14:50:36.559Z,1004.17
2022-08-28T14:51:44.749Z,1004.13
2022-08-28T14:52:39.889Z,1004.13
2022-08-28T14:53:42.128Z,1004.16
2022-08-28T14:54:43.127Z,1004.13
2022-08-28T14:55:50.428Z,1004.12
2022-08-28T14:56:45.629Z,1004.12
2022-08-28T14:57:48.901Z,1004.13
2022-08-28T14:58:49.773Z,1004.12
2022-08-28T14:59:51.969Z,1004.12
2022-08-28T15:00:54.155Z,1004.09
2022-08-28T15:01:55.158Z,1004.15
2022-08-28T15:02:59.831Z,1004.13
2022-08-28T15:03:58.680Z,1004.13
2022-08-28T15:05:00.853Z,1004.11
2022-08-28T15:06:02.975Z,1004.13
2022-08-28T15:07:11.152Z,1004.11
2022-08-28T15:08:06.271Z,1004.16
2022-08-28T15:09:07.451Z,1004.13
2022-08-28T15:10:09.618Z,1004.12
2022-08-28T15:11:14.316Z,1004.12
2022-08-28T15:12:13.981Z,1004.14
2022-08-28T15:13:15.186Z,1004.10
2022-08-28T15:14:16.357Z,1004.15
2022-08-28T15:15:18.481Z,1004.08
2022-08-28T15:16:19.735Z,1004.10
2022-08-28T15:17:20.999Z,1004.08
2022-08-28T15:18:22.183Z,1004.07
2022-08-28T15:19:23.403Z,1004.08
2022-08-28T15:20:25.260Z,1004.07
2022-08-28T15:21:26.427Z,1004.07
2022-08-28T15:22:28.554Z,1004.05
2022-08-28T15:23:30.671Z,1004.06
2022-08-28T15:24:32.949Z,1004.05
2022-08-28T15:25:34.043Z,1004.05
2022-08-28T15:26:36.130Z,1004.04
2022-08-28T15:27:38.269Z,1004.04
2022-08-28T15:28:39.445Z,1004.03
2022-08-28T15:29:41.576Z,1004.04
2022-08-28T15:30:50.008Z,1004.01
2022-08-28T15:31:45.658Z,1004.00
2022-08-28T15:32:52.617Z,1004.00
2022-08-28T15:33:53.765Z,1004.03
2022-08-28T15:34:49.552Z,1004.04
2022-08-28T15:35:51.729Z,1004.01
2022-08-28T15:36:55.211Z,1004.04
2022-08-28T15:37:55.002Z,1004.00
2022-08-28T15:38:57.125Z,1004.02
2022-08-28T15:39:58.384Z,1003.99
2022-08-28T15:40:59.792Z,1004.02
2022-08-28T15:42:00.961Z,1004.03
2022-08-28T15:43:02.140Z,1004.02
2022-08-28T15:44:04.682Z,1004.00
2022-08-28T15:45:06.342Z,1004.02
2022-08-28T15:46:07.348Z,1004.01
2022-08-28T15:47:08.554Z,1004.01
2022-08-28T15:48:09.730Z,1004.02
2022-08-28T15:49:10.820Z,1003.99
2022-08-28T15:50:11.846Z,1004.01
2022-08-28T15:51:13.051Z,1003.99
2022-08-28T15:52:14.414Z,1004.01
2022-08-28T15:53:18.146Z,1003.99
2022-08-28T15:54:16.943Z,1003.98
2022-08-28T15:55:18.560Z,1003.99
2022-08-28T15:56:19.746Z,1003.98
2022-08-28T15:57:21.870Z,1004.00
2022-08-28T15:58:24.008Z,1004.01
2022-08-28T15:59:48.815Z,1003.97
2022-08-28T16:00:28.365Z,1004.00
2022-08-28T16:01:29.387Z,1003.99
2022-08-28T16:02:30.480Z,1004.01
2022-08-28T16:03:31.610Z,1003.99
2022-08-28T16:04:33.821Z,1004.00
2022-08-28T16:05:34.799Z,1004.01
2022-08-28T16:06:37.017Z,1004.02
2022-08-28T16:07:45.284Z,1004.02
2022-08-28T16:08:40.584Z,1004.02
2022-08-28T16:09:42.249Z,1004.06
2022-08-28T16:10:44.373Z,1004.05
2022-08-28T16:11:46.490Z,1004.04
2022-08-28T16:12:57.470Z,1004.05
2022-08-28T16:13:50.440Z,1004.07
2022-08-28T16:14:51.614Z,1004.09
2022-08-28T16:15:53.805Z,1004.07
2022-08-28T16:16:54.859Z,1004.10
2022-08-28T16:17:56.136Z,1004.08
2022-08-28T16:18:57.369Z,1004.04
2022-08-28T16:19:59.512Z,1004.06
2022-08-28T16:21:04.903Z,1004.06
2022-08-28T16:22:02.927Z,1004.07
2022-08-28T16:23:04.103Z,1004.05
2022-08-28T16:24:05.140Z,1004.03
2022-08-28T16:25:06.092Z,1004.01
2022-08-28T16:26:08.259Z,1004.05
2022-08-28T16:27:14.683Z,1003.99
2022-08-28T16:28:11.167Z,1004.03
2022-08-28T16:29:12.894Z,1003.98
2022-08-28T16:30:15.759Z,1003.99
2022-08-28T16:31:19.057Z,1004.00
2022-08-28T16:32:18.641Z,1003.97
2022-08-28T16:33:19.808Z,1003.98
2022-08-28T16:34:21.926Z,1004.00
2022-08-28T16:35:24.046Z,1003.96
2022-08-28T16:36:25.353Z,1003.96
2022-08-28T16:38:29.250Z,1004.00
2022-08-28T16:39:30.528Z,1003.96
2022-08-28T16:40:32.733Z,1004.00
2022-08-28T16:41:33.728Z,1003.98
2022-08-28T16:42:37.944Z,1003.95